Time;durP1;ratioP1;P1;durP2;ratioP2;P2;SDS_P1;SDS_P2;PMS_P1;PMS_P2;Temp;Humidity;BMP_temperature;BMP_pressure;BME280_temperature;BME280_humidity;BME280_pressure;Samples;Min_cycle;Max_cycle;Signal;HPM_P1;HPM_P2
2021/07/20 00:01:08;;;;;;;20.33;11.77;;;17.50;99.90;;;;;;5073390;28;20460;-81
2021/07/20 00:03:35;;;;;;;18.47;12.40;;;17.50;99.90;;;;;;5073348;28;20456;-80
2021/07/20 00:06:02;;;;;;;18.00;12.07;;;17.50;99.90;;;;;;5072882;28;20999;-81
2021/07/20 00:08:30;;;;;;;21.20;12.70;;;17.40;99.90;;;;;;5073176;28;20459;-80
2021/07/20 00:10:59;;;;;;;18.87;11.83;;;17.40;99.90;;;;;;5073246;28;20457;-81
2021/07/20 00:13:26;;;;;;;19.00;11.77;;;17.40;99.90;;;;;;5077446;28;20440;-80
2021/07/20 00:15:55;;;;;;;18.77;12.33;;;17.40;99.90;;;;;;5077264;28;20807;-80
2021/07/20 00:18:24;;;;;;;20.07;12.10;;;17.40;99.90;;;;;;5077302;28;20561;-81
2021/07/20 00:20:52;;;;;;;19.40;12.40;;;17.30;99.90;;;;;;5077256;28;20448;-80
2021/07/20 00:23:20;;;;;;;20.27;13.33;;;17.30;99.90;;;;;;5077076;28;20460;-80
2021/07/20 00:25:49;;;;;;;18.13;11.70;;;17.20;99.90;;;;;;5076805;28;20995;-80
2021/07/20 00:28:16;;;;;;;20.47;13.13;;;17.20;99.90;;;;;;5077134;28;20488;-80
2021/07/20 00:30:43;;;;;;;18.10;11.27;;;17.10;99.90;;;;;;5076569;28;20491;-80
2021/07/20 00:33:10;;;;;;;21.80;13.30;;;17.10;99.90;;;;;;5077039;28;20445;-80
2021/07/20 00:35:37;;;;;;;18.83;11.77;;;17.10;99.90;;;;;;5076944;28;20440;-81
2021/07/20 00:38:04;;;;;;;18.57;13.00;;;17.00;99.90;;;;;;5076933;28;20453;-80
2021/07/20 00:40:32;;;;;;;20.27;12.40;;;17.10;99.90;;;;;;5076809;28;20473;-80
2021/07/20 00:43:01;;;;;;;20.47;12.77;;;17.00;99.90;;;;;;5077064;28;20457;-80
2021/07/20 00:45:28;;;;;;;18.70;12.57;;;17.00;99.90;;;;;;5076727;28;20476;-80
2021/07/20 00:47:55;;;;;;;17.90;12.23;;;17.00;99.90;;;;;;5076422;28;20956;-80
2021/07/20 00:50:25;;;;;;;17.57;11.80;;;17.00;99.90;;;;;;5076449;28;20828;-80
2021/07/20 00:52:52;;;;;;;20.07;12.60;;;16.90;99.90;;;;;;5076682;28;20455;-80
2021/07/20 00:55:19;;;;;;;17.43;11.60;;;17.00;99.90;;;;;;5076618;28;20448;-80
2021/07/20 00:57:47;;;;;;;23.17;13.50;;;16.90;99.90;;;;;;5076559;28;20448;-80
2021/07/20 01:00:18;;;;;;;17.40;11.90;;;16.90;99.90;;;;;;5076641;28;20469;-80
2021/07/20 01:02:45;;;;;;;18.93;11.40;;;16.90;99.90;;;;;;5076179;28;20425;-80
2021/07/20 01:05:13;;;;;;;18.30;12.00;;;16.90;99.90;;;;;;5076305;28;20460;-80
2021/07/20 01:07:43;;;;;;;19.10;13.17;;;16.80;99.90;;;;;;5076039;28;20954;-80
2021/07/20 01:10:12;;;;;;;18.10;11.50;;;16.80;99.90;;;;;;5076044;28;20812;-80
2021/07/20 01:12:41;;;;;;;18.93;12.23;;;16.80;99.90;;;;;;5075992;28;20451;-80
2021/07/20 01:15:10;;;;;;;20.00;12.47;;;16.70;99.90;;;;;;5076227;28;20444;-80
2021/07/20 01:17:39;;;;;;;22.70;14.20;;;16.70;99.90;;;;;;5076188;28;20539;-80
2021/07/20 01:20:08;;;;;;;21.93;12.97;;;16.70;99.90;;;;;;5076106;28;20465;-80
2021/07/20 01:22:37;;;;;;;19.00;12.70;;;16.70;99.90;;;;;;5075713;28;20441;-80
2021/07/20 01:25:09;;;;;;;18.70;11.90;;;16.60;99.90;;;;;;5076080;28;20440;-80
2021/07/20 01:27:37;;;;;;;19.70;12.60;;;16.60;99.90;;;;;;5075997;28;20500;-80
2021/07/20 01:30:06;;;;;;;17.10;11.37;;;16.60;99.90;;;;;;5075487;28;20472;-80
2021/07/20 01:32:33;;;;;;;18.17;11.13;;;16.60;99.90;;;;;;5075934;28;20445;-80
2021/07/20 01:35:01;;;;;;;19.87;12.57;;;16.50;99.90;;;;;;5075657;28;20437;-80
2021/07/20 01:37:30;;;;;;;18.87;11.47;;;16.50;99.90;;;;;;5075850;28;20452;-80
2021/07/20 01:39:58;;;;;;;18.40;11.63;;;16.40;99.90;;;;;;5075487;28;20453;-80
2021/07/20 01:42:28;;;;;;;20.30;12.10;;;16.40;99.90;;;;;;5075780;28;20449;-80
2021/07/20 01:44:56;;;;;;;20.90;12.30;;;16.40;99.90;;;;;;5076024;28;20446;-80
2021/07/20 01:47:25;;;;;;;24.93;13.50;;;16.40;99.90;;;;;;5075597;28;20489;-80
2021/07/20 01:49:53;;;;;;;22.80;13.30;;;16.40;99.90;;;;;;5075234;28;20984;-80
2021/07/20 01:52:20;;;;;;;18.23;11.97;;;16.30;99.90;;;;;;5075757;28;20475;-80
2021/07/20 01:54:47;;;;;;;20.47;13.30;;;16.40;99.90;;;;;;5075524;28;20449;-80
2021/07/20 01:57:14;;;;;;;18.60;12.43;;;16.30;99.90;;;;;;5075260;28;20437;-80
2021/07/20 01:59:43;;;;;;;18.43;11.63;;;16.30;99.90;;;;;;5075350;28;20465;-80
2021/07/20 02:02:20;;;;;;;21.00;11.87;;;16.30;99.90;;;;;;5075383;28;20958;-80
2021/07/20 02:10:21;;;;;;;17.63;11.60;;;16.20;99.90;;;;;;5057224;28;20467;-80
2021/07/20 02:12:48;;;;;;;18.53;11.60;;;16.20;99.90;;;;;;5074894;28;20932;-80
2021/07/20 02:15:18;;;;;;;20.40;12.87;;;16.10;99.90;;;;;;5074841;28;20441;-80
2021/07/20 02:17:47;;;;;;;19.73;12.37;;;16.10;99.90;;;;;;5074754;28;20484;-80
2021/07/20 02:20:18;;;;;;;20.00;11.50;;;16.10;99.90;;;;;;5074928;28;20464;-80
2021/07/20 02:22:46;;;;;;;20.20;12.77;;;16.10;99.90;;;;;;5075078;28;20426;-80
2021/07/20 02:25:15;;;;;;;17.80;11.30;;;16.00;99.90;;;;;;5074912;28;20452;-80
2021/07/20 02:27:43;;;;;;;15.80;11.30;;;16.00;99.90;;;;;;5074483;28;20999;-80
2021/07/20 02:30:14;;;;;;;21.33;12.63;;;16.00;99.90;;;;;;5073555;28;20480;-80
2021/07/20 02:32:43;;;;;;;20.30;12.20;;;16.00;99.90;;;;;;5074813;28;20437;-80
2021/07/20 02:35:12;;;;;;;24.93;13.10;;;16.00;99.90;;;;;;5073929;28;20437;-80
2021/07/20 02:37:42;;;;;;;19.27;11.97;;;16.00;99.90;;;;;;5074658;28;20445;-80
2021/07/20 02:40:11;;;;;;;16.70;10.47;;;16.00;99.90;;;;;;5074185;28;20823;-80
2021/07/20 02:42:38;;;;;;;19.20;12.00;;;15.90;99.90;;;;;;5074544;28;20444;-80
2021/07/20 02:45:07;;;;;;;18.37;11.43;;;15.90;99.90;;;;;;5074193;28;20971;-80
2021/07/20 02:47:35;;;;;;;20.10;12.00;;;15.90;99.90;;;;;;5074167;28;20480;-80
2021/07/20 02:50:05;;;;;;;16.87;10.90;;;15.90;99.90;;;;;;5074338;28;20479;-80
2021/07/20 02:52:33;;;;;;;15.90;11.23;;;15.80;99.90;;;;;;5074417;28;20434;-80
2021/07/20 02:55:02;;;;;;;22.33;12.63;;;15.80;99.90;;;;;;5074350;28;20433;-80
2021/07/20 02:57:29;;;;;;;23.93;13.10;;;15.80;99.90;;;;;;5074250;28;20440;-80
2021/07/20 02:59:58;;;;;;;17.90;11.63;;;15.80;99.90;;;;;;5074151;28;20465;-80
2021/07/20 03:02:26;;;;;;;18.53;12.00;;;15.70;99.90;;;;;;5074988;28;20453;-80
2021/07/20 03:04:53;;;;;;;20.73;12.40;;;15.70;99.90;;;;;;5074109;28;20436;-80
2021/07/20 03:07:26;;;;;;;19.73;11.63;;;15.70;99.90;;;;;;5074015;28;20492;-80
2021/07/20 03:09:54;;;;;;;26.13;11.30;;;15.70;99.90;;;;;;5074036;28;20518;-80
2021/07/20 03:12:23;;;;;;;18.87;11.83;;;15.60;99.90;;;;;;5073968;28;20453;-80
2021/07/20 03:14:52;;;;;;;21.87;13.07;;;15.60;99.90;;;;;;5073630;28;20469;-80
2021/07/20 03:17:22;;;;;;;18.20;11.87;;;15.60;99.90;;;;;;5073706;28;20940;-80
2021/07/20 03:19:49;;;;;;;18.13;11.50;;;15.50;99.90;;;;;;5073793;28;20464;-80
2021/07/20 03:22:17;;;;;;;18.90;12.43;;;15.50;99.90;;;;;;5073566;28;20967;-80
2021/07/20 03:24:47;;;;;;;16.23;10.70;;;15.50;99.90;;;;;;5074014;28;20460;-80
2021/07/20 03:27:14;;;;;;;20.60;11.20;;;15.50;99.90;;;;;;5073382;28;20531;-80
2021/07/20 03:29:43;;;;;;;19.40;11.83;;;15.40;99.90;;;;;;5073311;28;20488;-80
2021/07/20 03:32:11;;;;;;;23.47;13.60;;;15.40;99.90;;;;;;5073561;28;20970;-80
2021/07/20 03:34:40;;;;;;;18.93;12.77;;;15.40;99.90;;;;;;5073617;28;20944;-80
2021/07/20 03:37:08;;;;;;;20.37;12.03;;;15.40;99.90;;;;;;5074018;28;20441;-80
2021/07/20 03:39:36;;;;;;;24.57;13.10;;;15.40;99.90;;;;;;5073731;28;20469;-80
2021/07/20 03:42:05;;;;;;;18.30;11.37;;;15.30;99.90;;;;;;5073318;28;20435;-80
2021/07/20 03:44:33;;;;;;;20.17;12.03;;;15.30;99.90;;;;;;5073532;28;20460;-80
2021/07/20 03:47:00;;;;;;;18.03;12.07;;;15.30;99.90;;;;;;5072596;28;20495;-80
2021/07/20 03:49:27;;;;;;;19.60;12.60;;;15.30;99.90;;;;;;5073387;28;20480;-80
2021/07/20 03:51:58;;;;;;;21.17;12.80;;;15.30;99.90;;;;;;5073238;28;20974;-80
2021/07/20 03:54:26;;;;;;;19.97;12.57;;;15.30;99.90;;;;;;5073553;28;20441;-80
2021/07/20 03:56:54;;;;;;;18.43;12.50;;;15.30;99.90;;;;;;5073636;28;20448;-80
2021/07/20 03:59:24;;;;;;;24.30;12.97;;;15.20;99.90;;;;;;5073034;28;20801;-80
2021/07/20 04:01:53;;;;;;;19.77;11.93;;;15.20;99.90;;;;;;5073029;28;20447;-80
2021/07/20 04:04:22;;;;;;;18.80;11.80;;;15.20;99.90;;;;;;5073303;28;20455;-80
2021/07/20 04:06:50;;;;;;;21.43;11.57;;;15.20;99.90;;;;;;5072918;28;20995;-80
2021/07/20 04:09:17;;;;;;;18.93;12.00;;;15.20;99.90;;;;;;5073193;28;20460;-80
2021/07/20 04:11:44;;;;;;;18.07;12.30;;;15.20;99.90;;;;;;5073234;28;20485;-80
2021/07/20 04:14:13;;;;;;;19.20;11.93;;;15.20;99.90;;;;;;5073012;28;20444;-80
2021/07/20 04:16:43;;;;;;;19.27;11.30;;;15.20;99.90;;;;;;5073259;28;20441;-85
2021/07/20 04:19:10;;;;;;;17.70;11.63;;;15.20;99.90;;;;;;5073451;28;20472;-85
2021/07/20 04:21:38;;;;;;;18.60;11.43;;;15.20;99.90;;;;;;5073347;28;20515;-85
2021/07/20 04:24:05;;;;;;;22.10;12.37;;;15.20;99.90;;;;;;5073101;28;20433;-85
2021/07/20 04:26:32;;;;;;;19.13;11.90;;;15.20;99.90;;;;;;5073284;28;20485;-85
2021/07/20 04:28:59;;;;;;;21.50;12.10;;;15.30;99.90;;;;;;5073054;28;20852;-85
2021/07/20 04:31:30;;;;;;;15.00;10.40;;;15.30;99.90;;;;;;5073356;28;20428;-85
2021/07/20 04:33:59;;;;;;;17.03;10.63;;;15.30;99.90;;;;;;5073845;28;20434;-88
2021/07/20 04:36:27;;;;;;;20.53;11.27;;;15.40;99.90;;;;;;5075126;28;20453;-88
2021/07/20 04:38:54;;;;;;;17.50;11.10;;;15.40;99.90;;;;;;5075140;28;20835;-88
2021/07/20 04:41:21;;;;;;;20.40;12.50;;;15.40;99.90;;;;;;5074717;28;20461;-88
2021/07/20 04:43:49;;;;;;;19.20;11.50;;;15.40;99.90;;;;;;5073904;28;20448;-87
2021/07/20 04:46:17;;;;;;;20.50;11.70;;;15.40;99.90;;;;;;5074324;28;20452;-88
2021/07/20 04:48:45;;;;;;;18.13;11.17;;;15.40;99.90;;;;;;5075151;28;20940;-88
2021/07/20 04:51:13;;;;;;;15.87;11.00;;;15.50;99.90;;;;;;5074587;28;20452;-88
2021/07/20 04:53:41;;;;;;;18.00;11.20;;;15.50;99.90;;;;;;5074392;28;20527;-88
2021/07/20 04:56:09;;;;;;;19.93;12.10;;;15.50;99.90;;;;;;5074610;28;20441;-88
2021/07/20 04:58:36;;;;;;;16.27;11.37;;;15.50;99.90;;;;;;5079405;28;20465;-86
2021/07/20 05:01:04;;;;;;;20.40;11.03;;;15.60;99.90;;;;;;5076842;28;20448;-85
2021/07/20 05:03:34;;;;;;;15.77;10.10;;;15.60;99.90;;;;;;5076832;28;20478;-85
2021/07/20 05:06:01;;;;;;;24.93;12.10;;;15.70;99.90;;;;;;5076731;28;20455;-85
2021/07/20 05:08:31;;;;;;;17.30;10.10;;;15.80;99.90;;;;;;5076549;28;20853;-85
2021/07/20 05:10:58;;;;;;;18.80;11.63;;;15.80;99.90;;;;;;5077531;28;20441;-85
2021/07/20 05:13:26;;;;;;;14.50;11.00;;;15.80;99.90;;;;;;5076644;28;20449;-83
2021/07/20 05:15:54;;;;;;;18.83;10.80;;;15.90;99.90;;;;;;5076336;28;20445;-86
2021/07/20 05:18:22;;;;;;;20.03;10.93;;;15.90;99.90;;;;;;5076471;28;20440;-85
2021/07/20 05:20:50;;;;;;;18.10;11.30;;;16.00;99.90;;;;;;5076376;28;20476;-85
2021/07/20 05:23:18;;;;;;;19.53;11.70;;;16.00;99.90;;;;;;5076181;28;20437;-82
2021/07/20 05:25:51;;;;;;;17.50;10.33;;;16.00;99.90;;;;;;5076056;28;20425;-82
2021/07/20 05:28:19;;;;;;;21.80;12.20;;;16.10;99.90;;;;;;5076966;28;20461;-82
2021/07/20 05:30:50;;;;;;;16.63;10.57;;;16.10;99.90;;;;;;5075384;28;20983;-82
2021/07/20 05:33:18;;;;;;;16.43;10.30;;;16.20;99.90;;;;;;5075651;28;20939;-82
2021/07/20 05:35:46;;;;;;;22.13;11.07;;;16.20;99.90;;;;;;5080400;28;20452;-89
2021/07/20 05:38:13;;;;;;;17.73;11.30;;;16.20;99.90;;;;;;5080996;28;20437;-88
2021/07/20 05:40:41;;;;;;;17.90;11.17;;;16.30;99.90;;;;;;5080859;28;20473;-89
2021/07/20 05:43:10;;;;;;;17.50;12.37;;;16.40;99.90;;;;;;5079547;28;20461;-88
2021/07/20 05:45:37;;;;;;;21.17;11.83;;;16.40;99.90;;;;;;5080067;28;20954;-89
2021/07/20 05:48:05;;;;;;;19.20;11.53;;;16.50;99.90;;;;;;5079188;28;21074;-88
2021/07/20 05:50:32;;;;;;;15.07;10.57;;;16.60;99.90;;;;;;5077968;28;20453;-88
2021/07/20 05:53:01;;;;;;;20.83;10.67;;;16.60;99.90;;;;;;5077904;28;20932;-88
2021/07/20 05:55:30;;;;;;;14.90;10.30;;;16.70;99.90;;;;;;5077059;28;20433;-82
2021/07/20 05:58:00;;;;;;;14.90;9.93;;;16.80;99.90;;;;;;5075226;28;20947;-82
2021/07/20 06:00:30;;;;;;;20.17;10.33;;;16.90;99.90;;;;;;5075735;28;20471;-85
2021/07/20 06:02:58;;;;;;;14.97;9.20;;;17.00;99.90;;;;;;5075870;28;20483;-85
2021/07/20 06:05:27;;;;;;;17.23;9.90;;;17.10;99.90;;;;;;5075551;28;20484;-85
2021/07/20 06:07:54;;;;;;;15.07;9.67;;;17.10;99.90;;;;;;5075080;28;20899;-85
2021/07/20 06:10:22;;;;;;;19.90;9.87;;;17.20;99.90;;;;;;5074713;28;20499;-85
2021/07/20 06:12:50;;;;;;;14.43;10.60;;;17.30;99.90;;;;;;5075413;28;20444;-86
2021/07/20 06:15:18;;;;;;;14.53;9.83;;;17.40;99.90;;;;;;5075263;28;20951;-85
2021/07/20 06:17:47;;;;;;;13.30;9.30;;;17.50;99.90;;;;;;5075535;28;20444;-86
2021/07/20 06:20:15;;;;;;;16.30;10.30;;;17.60;99.90;;;;;;5075645;28;21011;-88
2021/07/20 06:22:48;;;;;;;14.40;9.20;;;17.70;99.90;;;;;;5077206;28;20802;-88
2021/07/20 06:25:16;;;;;;;17.10;8.90;;;17.80;99.90;;;;;;5077742;28;20477;-88
2021/07/20 06:27:45;;;;;;;13.20;9.17;;;17.90;99.90;;;;;;5077545;28;20900;-85
2021/07/20 06:30:14;;;;;;;14.50;9.60;;;18.00;99.90;;;;;;5075423;28;20491;-89
2021/07/20 06:32:41;;;;;;;15.50;9.43;;;18.10;99.90;;;;;;5076475;28;20463;-88
2021/07/20 06:35:14;;;;;;;11.73;9.07;;;18.20;99.90;;;;;;5075601;28;20452;-89
2021/07/20 06:37:43;;;;;;;13.10;8.37;;;18.30;99.90;;;;;;5076036;28;20433;-82
2021/07/20 06:40:13;;;;;;;15.20;9.30;;;18.40;99.90;;;;;;5074867;28;20464;-82
2021/07/20 06:42:41;;;;;;;11.17;8.20;;;18.50;99.90;;;;;;5074679;28;20855;-88
2021/07/20 06:45:09;;;;;;;12.90;8.77;;;18.60;99.90;;;;;;5074634;28;20429;-86
2021/07/20 06:47:39;;;;;;;10.17;7.77;;;18.70;99.90;;;;;;5074189;28;20480;-83
2021/07/20 06:50:08;;;;;;;14.93;9.67;;;18.80;99.90;;;;;;5074937;28;20473;-83
2021/07/20 06:52:36;;;;;;;14.90;9.03;;;18.90;99.90;;;;;;5075130;28;20441;-83
2021/07/20 06:55:04;;;;;;;14.83;9.13;;;19.00;99.90;;;;;;5074480;28;20460;-83
2021/07/20 06:57:32;;;;;;;13.87;9.03;;;19.00;99.90;;;;;;5074302;28;20456;-83
2021/07/20 07:00:00;;;;;;;14.00;9.07;;;19.20;99.90;;;;;;5074047;28;20476;-85
2021/07/20 07:02:28;;;;;;;14.07;9.07;;;19.20;99.90;;;;;;5074783;28;20449;-85
2021/07/20 07:05:00;;;;;;;11.87;8.67;;;19.30;99.90;;;;;;5074573;28;20448;-85
2021/07/20 07:07:29;;;;;;;12.87;8.60;;;19.30;99.90;;;;;;5074403;28;20469;-85
2021/07/20 07:09:58;;;;;;;12.53;8.80;;;19.60;99.90;;;;;;5074091;28;20819;-83
2021/07/20 07:12:26;;;;;;;12.77;8.70;;;19.70;99.90;;;;;;5073649;28;20448;-83
2021/07/20 07:14:53;;;;;;;12.60;8.70;;;19.90;99.90;;;;;;5073992;28;20562;-83
2021/07/20 07:17:21;;;;;;;12.23;8.77;;;19.90;99.90;;;;;;5073727;28;20955;-83
2021/07/20 07:19:52;;;;;;;12.50;8.70;;;20.00;99.90;;;;;;5073613;28;20457;-83
2021/07/20 07:22:21;;;;;;;11.97;8.00;;;20.00;99.90;;;;;;5073571;28;20939;-82
2021/07/20 07:24:48;;;;;;;12.23;8.50;;;20.10;99.90;;;;;;5073599;28;20931;-81
2021/07/20 07:27:19;;;;;;;10.60;7.87;;;20.20;99.90;;;;;;5073770;28;20467;-81
2021/07/20 07:29:46;;;;;;;15.47;9.07;;;20.30;99.90;;;;;;5073323;28;20480;-81
2021/07/20 07:32:13;;;;;;;12.00;8.23;;;20.30;99.90;;;;;;5073386;28;20448;-81
2021/07/20 07:34:40;;;;;;;10.47;8.50;;;20.30;99.90;;;;;;5073475;28;20444;-81
2021/07/20 07:37:08;;;;;;;15.43;9.67;;;20.30;99.90;;;;;;5073722;28;20447;-81
2021/07/20 07:39:37;;;;;;;14.13;9.37;;;20.50;99.90;;;;;;5073760;28;20471;-87
2021/07/20 07:42:06;;;;;;;14.10;9.57;;;20.60;99.90;;;;;;5073292;28;20452;-84
2021/07/20 07:44:34;;;;;;;13.57;8.93;;;20.60;99.90;;;;;;5073535;28;20455;-84
2021/07/20 07:47:01;;;;;;;15.80;8.43;;;20.70;99.90;;;;;;5073647;28;20440;-84
2021/07/20 07:49:29;;;;;;;12.53;8.23;;;20.80;99.90;;;;;;5073473;28;20488;-84
2021/07/20 07:51:56;;;;;;;11.47;8.47;;;20.80;99.90;;;;;;5073546;28;20471;-84
2021/07/20 07:54:23;;;;;;;12.23;7.97;;;20.90;99.90;;;;;;5073494;28;20451;-84
2021/07/20 07:56:52;;;;;;;12.13;8.33;;;21.10;99.90;;;;;;5073510;28;20463;-84
2021/07/20 07:59:23;;;;;;;16.43;9.50;;;21.40;99.90;;;;;;5073963;28;20471;-84
2021/07/20 08:01:54;;;;;;;10.97;7.93;;;21.70;99.90;;;;;;5073540;28;20463;-84
2021/07/20 08:04:23;;;;;;;9.13;7.23;;;22.10;99.90;;;;;;5073392;28;20959;-84
2021/07/20 08:06:51;;;;;;;12.63;8.68;;;22.60;99.90;;;;;;5075529;28;20213;-89
2021/07/20 08:09:20;;;;;;;10.15;7.75;;;23.00;99.90;;;;;;5075287;28;20272;-91
2021/07/20 08:11:48;;;;;;;10.10;8.05;;;23.30;99.90;;;;;;5075490;28;20202;-91
2021/07/20 08:14:15;;;;;;;10.30;8.35;;;23.40;99.90;;;;;;5075138;28;20308;-91
2021/07/20 08:16:45;;;;;;;9.00;7.65;;;23.60;99.90;;;;;;5075840;28;20234;-91
2021/07/20 08:19:15;;;;;;;10.57;7.80;;;23.40;99.90;;;;;;5074914;28;20233;-91
2021/07/20 08:21:43;;;;;;;10.52;7.20;;;23.30;99.90;;;;;;5075382;28;20606;-92
2021/07/20 08:24:11;;;;;;;11.57;7.75;;;23.60;99.90;;;;;;5075213;28;20198;-91
2021/07/20 08:26:46;;;;;;;9.20;7.22;;;23.90;99.90;;;;;;5074832;28;20208;-91
2021/07/20 08:29:17;;;;;;;8.55;6.63;;;24.10;99.90;;;;;;5074318;28;20241;-91
2021/07/20 08:31:49;;;;;;;9.40;7.22;;;24.20;99.90;;;;;;5074864;28;20638;-91
2021/07/20 08:34:20;;;;;;;7.85;6.00;;;24.40;99.90;;;;;;5078637;28;20197;-87
2021/07/20 08:36:49;;;;;;;9.60;6.85;;;24.30;99.90;;;;;;5077264;28;20240;-87
2021/07/20 08:39:16;;;;;;;10.85;7.65;;;24.30;99.90;;;;;;5077112;28;20225;-86
2021/07/20 08:42:00;;;;;;;10.20;6.72;;;24.10;99.90;;;;;;5077385;28;20206;-87
2021/07/20 08:44:43;;;;;;;8.10;7.28;;;24.20;99.90;;;;;;5077092;28;20183;-86
2021/07/20 08:47:15;;;;;;;7.75;5.85;;;24.20;99.90;;;;;;5077042;28;20251;-86
2021/07/20 08:50:33;;;;;;;13.15;8.05;;;24.10;99.90;;;;;;5076578;28;20735;-86
2021/07/20 08:53:11;;;;;;;10.23;6.47;;;24.00;99.90;;;;;;5037940;28;20206;-86
2021/07/20 08:55:40;;;;;;;7.57;6.78;;;24.00;99.90;;;;;;5076658;28;20197;-86
2021/07/20 08:58:16;;;;;;;8.65;6.60;;;24.20;99.90;;;;;;5076814;28;20202;-84
2021/07/20 09:00:46;;;;;;;9.43;6.60;;;24.10;99.90;;;;;;5076569;28;20221;-84
2021/07/20 09:03:30;;;;;;;9.85;6.53;;;23.90;99.90;;;;;;5076483;28;20653;-87
2021/07/20 09:06:04;;;;;;;9.63;7.00;;;24.20;99.90;;;;;;5076948;28;20695;-84
2021/07/20 09:08:37;;;;;;;10.75;7.10;;;24.20;99.90;;;;;;5076494;28;20738;-86
2021/07/20 09:11:09;;;;;;;8.13;7.15;;;24.00;99.90;;;;;;5076746;28;20183;-86
2021/07/20 09:13:40;;;;;;;10.25;7.78;;;23.90;99.90;;;;;;5076511;28;20182;-82
2021/07/20 09:16:12;;;;;;;8.98;7.57;;;24.00;99.90;;;;;;5076750;28;20194;-83
2021/07/20 09:18:45;;;;;;;12.57;8.50;;;24.30;99.90;;;;;;5076374;28;20187;-82
2021/07/20 09:21:14;;;;;;;12.00;7.20;;;24.60;99.90;;;;;;5076266;28;20546;-82
2021/07/20 09:23:51;;;;;;;10.85;8.38;;;24.60;99.90;;;;;;5076583;28;20194;-88
2021/07/20 09:26:22;;;;;;;9.27;7.40;;;24.50;99.90;;;;;;5077816;28;20178;-88
2021/07/20 09:28:55;;;;;;;9.77;8.10;;;24.30;99.90;;;;;;5078280;28;20230;-91
2021/07/20 09:31:29;;;;;;;9.13;7.28;;;24.20;99.90;;;;;;5077736;28;20197;-91
2021/07/20 09:34:07;;;;;;;9.57;6.75;;;24.40;99.90;;;;;;5077177;28;20247;-83
2021/07/20 09:36:40;;;;;;;9.32;7.13;;;24.50;99.90;;;;;;5076097;28;20190;-82
2021/07/20 09:39:39;;;;;;;9.73;7.28;;;24.30;99.90;;;;;;5076038;28;20221;-84
2021/07/20 09:42:14;;;;;;;8.90;7.35;;;24.10;99.90;;;;;;5076355;28;20187;-89
2021/07/20 09:44:45;;;;;;;9.55;7.78;;;24.20;99.90;;;;;;5079291;28;20178;-91
2021/07/20 09:47:22;;;;;;;8.60;7.57;;;24.50;99.90;;;;;;5078748;28;20186;-90
2021/07/20 09:50:03;;;;;;;9.88;8.10;;;24.60;99.90;;;;;;5077403;28;20222;-91
2021/07/20 09:53:19;;;;;;;10.98;8.57;;;24.70;99.90;;;;;;5076970;28;20190;-84
2021/07/20 09:56:04;;;;;;;10.00;8.23;;;24.70;99.90;;;;;;5075495;28;20186;-86
2021/07/20 09:58:34;;;;;;;10.82;8.70;;;24.50;99.90;;;;;;5075743;28;20189;-86
2021/07/20 10:01:08;;;;;;;9.18;8.27;;;24.30;99.90;;;;;;5075718;28;20198;-87
2021/07/20 10:03:46;;;;;;;10.25;8.43;;;24.40;99.90;;;;;;5075684;28;20191;-87
2021/07/20 10:06:19;;;;;;;11.70;8.40;;;24.60;99.90;;;;;;5075791;28;20194;-86
2021/07/20 10:09:01;;;;;;;8.95;7.50;;;24.40;99.90;;;;;;5075711;28;20210;-87
2021/07/20 10:11:37;;;;;;;9.93;7.97;;;24.40;99.90;;;;;;5077063;28;20216;-91
2021/07/20 10:14:25;;;;;;;11.27;8.50;;;24.80;99.90;;;;;;5075161;28;20186;-86
2021/07/20 10:17:02;;;;;;;14.13;8.35;;;25.10;99.90;;;;;;5075364;28;20625;-84
2021/07/20 10:19:36;;;;;;;11.20;8.40;;;25.50;99.90;;;;;;5075373;28;20252;-84
2021/07/20 10:22:06;;;;;;;12.93;9.98;;;25.80;99.50;;;;;;5075206;28;20193;-83
2021/07/20 10:24:36;;;;;;;8.57;7.68;;;26.00;97.10;;;;;;5075140;28;20209;-83
2021/07/20 10:27:11;;;;;;;11.13;8.38;;;26.00;99.00;;;;;;5075373;28;20178;-83
2021/07/20 10:29:47;;;;;;;9.27;8.07;;;26.30;99.20;;;;;;5074625;28;20251;-82
2021/07/20 10:32:18;;;;;;;13.88;9.10;;;26.30;99.10;;;;;;5074747;28;20197;-82
2021/07/20 10:34:48;;;;;;;11.80;8.80;;;26.00;99.50;;;;;;5075001;28;20194;-82
2021/07/20 10:37:19;;;;;;;11.55;8.80;;;25.80;99.40;;;;;;5075651;28;20202;-84
2021/07/20 10:39:51;;;;;;;14.90;10.25;;;25.80;98.60;;;;;;5074804;28;20268;-84
2021/07/20 10:42:24;;;;;;;14.45;9.88;;;26.00;97.60;;;;;;5075648;28;20553;-84
2021/07/20 10:44:58;;;;;;;11.48;9.13;;;25.80;97.00;;;;;;5074880;28;20595;-85
2021/07/20 10:47:31;;;;;;;13.35;9.63;;;25.60;97.20;;;;;;5074935;28;20187;-86
2021/07/20 10:50:01;;;;;;;12.00;9.20;;;25.40;97.60;;;;;;5074340;28;20226;-85
2021/07/20 10:52:41;;;;;;;12.40;9.73;;;25.70;98.40;;;;;;5074840;28;20547;-85
2021/07/20 10:55:15;;;;;;;10.07;8.60;;;26.00;98.10;;;;;;5074118;28;20199;-84
2021/07/20 10:57:56;;;;;;;13.35;9.43;;;26.20;97.40;;;;;;5074587;28;20186;-84
2021/07/20 11:00:24;;;;;;;13.90;11.07;;;26.30;94.10;;;;;;5075167;28;20232;-86
2021/07/20 11:03:01;;;;;;;13.18;10.38;;;25.90;96.50;;;;;;5074604;28;20549;-87
2021/07/20 11:05:30;;;;;;;12.00;8.77;;;25.40;97.60;;;;;;5074412;28;20193;-83
2021/07/20 11:08:00;;;;;;;14.38;10.38;;;25.10;97.60;;;;;;5074832;28;20255;-91
2021/07/20 11:10:32;;;;;;;14.23;10.02;;;25.40;97.30;;;;;;5076590;28;20222;-91
2021/07/20 11:13:02;;;;;;;12.70;9.75;;;25.30;99.20;;;;;;5074810;28;20285;-83
2021/07/20 11:15:31;;;;;;;12.55;9.35;;;25.10;99.70;;;;;;5074436;28;20186;-86
2021/07/20 11:18:04;;;;;;;12.10;9.35;;;24.90;98.30;;;;;;5074303;28;20202;-88
2021/07/20 11:20:32;;;;;;;14.80;9.75;;;24.60;96.90;;;;;;5074226;28;20228;-87
2021/07/20 11:23:00;;;;;;;14.10;9.65;;;24.30;97.20;;;;;;5074544;28;20205;-90
2021/07/20 11:25:28;;;;;;;13.40;10.30;;;24.30;97.70;;;;;;5078323;28;20208;-91
2021/07/20 11:27:57;;;;;;;17.88;10.45;;;24.40;97.50;;;;;;5075715;28;20197;-91
2021/07/20 11:30:27;;;;;;;12.90;10.13;;;24.40;97.40;;;;;;5074115;28;20225;-87
2021/07/20 11:33:00;;;;;;;14.27;10.13;;;24.30;98.40;;;;;;5074632;28;20194;-87
2021/07/20 11:35:31;;;;;;;12.32;10.05;;;24.30;98.10;;;;;;5073821;28;20273;-84
2021/07/20 11:38:05;;;;;;;12.35;9.95;;;24.20;97.50;;;;;;5073889;28;20198;-82
2021/07/20 11:40:39;;;;;;;14.70;10.73;;;24.20;97.50;;;;;;5074034;28;20248;-83
2021/07/20 11:43:09;;;;;;;13.30;10.25;;;24.30;98.10;;;;;;5073576;28;20175;-83
2021/07/20 11:45:43;;;;;;;12.90;9.30;;;24.40;98.50;;;;;;5073451;28;20665;-88
2021/07/20 11:48:13;;;;;;;12.27;9.02;;;24.60;98.90;;;;;;5073521;28;20189;-87
2021/07/20 11:50:45;;;;;;;12.30;9.38;;;24.70;98.80;;;;;;5073408;28;20229;-85
2021/07/20 11:53:20;;;;;;;15.38;10.13;;;24.60;98.10;;;;;;5073539;28;20178;-85
2021/07/20 11:55:52;;;;;;;13.18;9.63;;;24.30;97.80;;;;;;5073456;28;20186;-87
2021/07/20 11:58:55;;;;;;;15.15;10.25;;;24.20;98.30;;;;;;5073511;28;20197;-85
2021/07/20 12:01:49;;;;;;;15.10;11.00;;;24.30;98.30;;;;;;5073188;28;20193;-83
2021/07/20 12:04:35;;;;;;;16.35;10.93;;;24.30;98.50;;;;;;5073338;28;20197;-84
2021/07/20 12:07:06;;;;;;;12.75;10.10;;;24.30;97.10;;;;;;5072546;28;20213;-84
2021/07/20 12:09:46;;;;;;;12.82;9.43;;;24.10;97.40;;;;;;5073230;28;20228;-83
2021/07/20 12:12:16;;;;;;;12.68;10.40;;;24.00;97.20;;;;;;5073064;28;20664;-81
2021/07/20 12:14:44;;;;;;;12.70;9.73;;;23.80;98.70;;;;;;5073036;28;20566;-83
2021/07/20 12:17:15;;;;;;;15.88;10.55;;;23.60;98.80;;;;;;5073287;28;20202;-83
2021/07/20 12:19:42;;;;;;;13.55;10.73;;;23.50;99.20;;;;;;5073104;28;20218;-83
2021/07/20 12:22:11;;;;;;;11.77;8.70;;;23.40;98.30;;;;;;5073273;28;20209;-89
2021/07/20 12:24:38;;;;;;;14.82;10.50;;;23.60;98.80;;;;;;5074203;28;20662;-81
2021/07/20 12:27:06;;;;;;;12.45;9.18;;;23.90;96.70;;;;;;5073161;28;20205;-82
2021/07/20 12:29:40;;;;;;;12.20;8.80;;;24.00;97.80;;;;;;5072587;28;20245;-83
2021/07/20 12:32:13;;;;;;;15.73;9.20;;;24.00;97.60;;;;;;5073223;28;20190;-81
2021/07/20 12:34:42;;;;;;;11.95;9.00;;;24.00;97.60;;;;;;5072844;28;20186;-85
2021/07/20 12:37:10;;;;;;;15.23;9.27;;;24.00;97.30;;;;;;5073719;28;20556;-81
2021/07/20 12:39:41;;;;;;;10.52;9.18;;;24.00;97.10;;;;;;5072972;28;20225;-82
2021/07/20 12:42:10;;;;;;;11.95;8.77;;;24.00;97.10;;;;;;5073932;28;20190;-89
2021/07/20 12:44:37;;;;;;;14.07;10.57;;;24.10;96.90;;;;;;5076045;28;20205;-83
2021/07/20 12:47:08;;;;;;;13.32;10.18;;;24.00;96.80;;;;;;5072917;28;20206;-82
2021/07/20 12:49:36;;;;;;;15.73;9.18;;;23.90;95.20;;;;;;5072482;28;20226;-83
2021/07/20 12:52:06;;;;;;;12.30;9.50;;;23.90;95.90;;;;;;5072949;28;20205;-82
2021/07/20 12:54:35;;;;;;;14.10;9.90;;;23.80;96.50;;;;;;5073270;28;20788;-90